Time;durP1;ratioP1;P1;durP2;ratioP2;P2;SDS_P1;SDS_P2;PMS_P1;PMS_P2;Temp;Humidity;BMP_temperature;BMP_pressure;BME280_temperature;BME280_humidity;BME280_pressure;Samples;Min_cycle;Max_cycle;Signal;HPM_P1;HPM_P2
2022/09/15 00:04:59;;;;;;;2.35;1.27;;;21.30;65.20;;;;;;10127336;29;20358;-55
2022/09/15 00:10:00;;;;;;;2.05;1.50;;;21.30;65.20;;;;;;10126659;29;20430;-56
2022/09/15 00:15:01;;;;;;;2.22;1.10;;;21.30;65.40;;;;;;10126790;29;20148;-55
2022/09/15 00:20:04;;;;;;;2.50;1.02;;;21.30;65.40;;;;;;10126969;29;20452;-55
2022/09/15 00:25:05;;;;;;;3.50;1.67;;;21.30;65.50;;;;;;10126704;29;20035;-55
2022/09/15 00:30:07;;;;;;;2.38;1.30;;;21.30;65.50;;;;;;10125983;29;20392;-56
2022/09/15 00:35:08;;;;;;;1.77;1.30;;;21.30;65.50;;;;;;10108750;29;20112;-55
2022/09/15 00:40:09;;;;;;;2.53;1.27;;;21.30;65.50;;;;;;10125498;29;20108;-55
2022/09/15 00:45:16;;;;;;;2.70;1.00;;;21.30;65.50;;;;;;10109219;29;20040;-57
2022/09/15 00:50:19;;;;;;;1.60;1.17;;;21.20;65.40;;;;;;10125787;29;20041;-55
2022/09/15 00:55:40;;;;;;;2.45;1.70;;;21.20;65.50;;;;;;10109047;29;20048;-56
2022/09/15 01:00:50;;;;;;;2.88;1.40;;;21.20;65.50;;;;;;10108079;29;20120;-55
2022/09/15 01:06:15;;;;;;;3.17;1.40;;;21.20;65.50;;;;;;10125223;29;20037;-55
2022/09/15 01:11:16;;;;;;;2.35;1.48;;;21.20;65.40;;;;;;10124335;29;20071;-56
2022/09/15 01:16:28;;;;;;;3.00;1.40;;;21.20;66.30;;;;;;10108481;29;20072;-55
2022/09/15 01:21:50;;;;;;;4.68;2.38;;;21.30;68.00;;;;;;10109218;29;20037;-56
2022/09/15 01:27:10;;;;;;;2.40;1.58;;;21.30;68.50;;;;;;10109199;29;20102;-56
2022/09/15 01:37:59;;;;;;;2.53;1.40;;;21.30;68.60;;;;;;10111925;29;20094;-56
2022/09/15 01:43:02;;;;;;;4.15;1.35;;;21.30;68.40;;;;;;10109879;29;20052;-55
2022/09/15 01:48:05;;;;;;;2.03;1.13;;;21.20;68.30;;;;;;10115576;29;20508;-55
2022/09/15 01:53:14;;;;;;;2.47;1.30;;;21.30;68.20;;;;;;10114991;29;20044;-56
2022/09/15 01:58:15;;;;;;;2.50;1.25;;;21.20;68.00;;;;;;10132120;29;20097;-56
2022/09/15 02:03:53;;;;;;;2.38;1.73;;;21.20;67.80;;;;;;10131272;29;20041;-57
2022/09/15 02:09:01;;;;;;;2.17;1.38;;;21.20;67.80;;;;;;10125127;29;20036;-55
2022/09/15 02:14:17;;;;;;;;;;;21.20;67.70;;;;;;10106628;29;20081;-55
2022/09/15 02:19:36;;;;;;;1.52;1.10;;;21.20;67.10;;;;;;10115655;29;19930;-55
2022/09/15 02:25:15;;;;;;;3.08;1.42;;;21.20;67.40;;;;;;10114545;29;20073;-55
2022/09/15 02:30:19;;;;;;;2.33;1.70;;;21.20;67.30;;;;;;10130275;29;20508;-56
2022/09/15 02:35:20;;;;;;;1.88;1.20;;;21.20;67.10;;;;;;10130559;29;20384;-55
2022/09/15 02:40:21;;;;;;;3.95;1.10;;;21.20;66.90;;;;;;10130051;29;20056;-54
2022/09/15 02:45:26;;;;;;;2.67;1.30;;;21.20;66.90;;;;;;10113429;29;20029;-55
2022/09/15 02:50:27;;;;;;;1.23;1.05;;;21.20;67.00;;;;;;10130197;29;20625;-57
2022/09/15 02:55:27;;;;;;;2.03;1.05;;;21.20;66.80;;;;;;10129098;29;20049;-55
2022/09/15 03:00:29;;;;;;;1.40;0.90;;;21.10;66.70;;;;;;10129084;29;20050;-55
2022/09/15 03:05:30;;;;;;;2.35;1.27;;;21.20;66.70;;;;;;10129678;29;20084;-56
2022/09/15 03:10:32;;;;;;;1.90;1.33;;;21.20;66.50;;;;;;10129103;29;20131;-56
2022/09/15 03:15:33;;;;;;;1.70;1.30;;;21.20;66.60;;;;;;10129361;29;20499;-55
2022/09/15 03:20:33;;;;;;;1.90;1.02;;;21.20;66.50;;;;;;10112294;29;20075;-55
2022/09/15 03:25:34;;;;;;;2.58;0.90;;;21.20;66.50;;;;;;10112130;29;20065;-55
2022/09/15 03:30:35;;;;;;;1.60;1.10;;;21.10;66.50;;;;;;10111623;29;20128;-55
2022/09/15 03:36:38;;;;;;;2.17;1.00;;;21.10;66.40;;;;;;10128666;29;20107;-55
2022/09/15 03:41:38;;;;;;;2.80;1.25;;;21.10;66.50;;;;;;10120974;29;20057;-55
2022/09/15 03:46:39;;;;;;;1.50;0.95;;;21.10;66.40;;;;;;10127680;29;20037;-57
2022/09/15 03:51:40;;;;;;;2.63;1.20;;;21.10;66.40;;;;;;10126321;29;20111;-56
2022/09/15 03:56:41;;;;;;;1.48;0.90;;;21.10;66.40;;;;;;10127629;29;20063;-54
2022/09/15 04:01:42;;;;;;;2.08;1.33;;;21.10;66.40;;;;;;10123684;29;20123;-56
2022/09/15 04:06:43;;;;;;;2.08;0.88;;;21.10;66.50;;;;;;10101857;29;20433;-56
2022/09/15 04:11:44;;;;;;;3.60;1.25;;;21.10;66.80;;;;;;10105465;29;20044;-54
2022/09/15 04:16:45;;;;;;;2.00;1.00;;;21.10;67.10;;;;;;10106551;29;20043;-56
2022/09/15 04:21:46;;;;;;;3.08;1.35;;;21.10;67.00;;;;;;10121018;29;20111;-55
2022/09/15 04:26:47;;;;;;;1.52;1.10;;;21.10;67.40;;;;;;10097235;29;20028;-56
2022/09/15 04:31:49;;;;;;;1.48;1.08;;;21.10;67.00;;;;;;10121507;29;20063;-55
2022/09/15 04:36:49;;;;;;;2.10;0.95;;;21.10;66.90;;;;;;10121299;29;20040;-56
2022/09/15 04:41:50;;;;;;;2.70;1.35;;;21.10;66.90;;;;;;10121701;29;20484;-56
2022/09/15 04:46:51;;;;;;;3.25;1.13;;;21.00;66.80;;;;;;10122014;29;20040;-55
2022/09/15 04:51:52;;;;;;;0.90;0.65;;;21.10;66.60;;;;;;10121576;29;20465;-55
2022/09/15 04:56:53;;;;;;;1.85;0.70;;;21.00;66.50;;;;;;10104930;29;20047;-55
2022/09/15 05:01:54;;;;;;;2.00;1.10;;;21.10;66.60;;;;;;10122222;29;20038;-56
2022/09/15 05:06:55;;;;;;;3.60;1.10;;;21.00;66.80;;;;;;10131391;29;20040;-56
2022/09/15 05:11:56;;;;;;;3.00;1.05;;;21.10;66.80;;;;;;10121071;29;20580;-57
2022/09/15 05:16:57;;;;;;;3.45;1.20;;;21.10;66.80;;;;;;10106311;29;20051;-56
2022/09/15 05:21:57;;;;;;;2.47;1.42;;;21.20;67.20;;;;;;10127159;29;20032;-56
2022/09/15 05:26:58;;;;;;;5.35;1.60;;;21.10;67.20;;;;;;10111835;29;20031;-55
2022/09/15 05:31:59;;;;;;;2.85;1.30;;;21.10;67.70;;;;;;10130659;29;20076;-56
2022/09/15 05:36:59;;;;;;;4.00;1.73;;;21.10;67.50;;;;;;10129069;29;20123;-54
2022/09/15 05:42:00;;;;;;;6.80;1.50;;;21.10;67.40;;;;;;10129793;29;20521;-54
2022/09/15 05:47:01;;;;;;;5.55;1.33;;;21.10;67.40;;;;;;10113226;29;20036;-54
2022/09/15 05:52:03;;;;;;;7.22;1.80;;;21.00;67.40;;;;;;10129466;29;20544;-54
2022/09/15 05:57:03;;;;;;;8.20;2.10;;;21.00;67.50;;;;;;10113471;29;20060;-57
2022/09/15 06:02:04;;;;;;;19.25;2.90;;;21.00;67.30;;;;;;10129347;29;20068;-56
2022/09/15 06:07:05;;;;;;;11.43;1.73;;;21.10;67.50;;;;;;10111593;29;20477;-56
2022/09/15 06:12:06;;;;;;;7.93;2.40;;;21.10;67.50;;;;;;10129061;29;20116;-54
2022/09/15 06:17:06;;;;;;;5.40;1.70;;;21.10;67.30;;;;;;10128710;29;20045;-54
2022/09/15 06:22:07;;;;;;;4.50;1.73;;;21.00;67.50;;;;;;10128955;29;20110;-54
2022/09/15 06:27:08;;;;;;;9.32;1.55;;;21.00;67.30;;;;;;10127850;29;20066;-54
2022/09/15 06:32:09;;;;;;;6.97;2.00;;;21.00;67.30;;;;;;10127865;29;20045;-56
2022/09/15 06:37:10;;;;;;;6.65;1.60;;;21.00;67.20;;;;;;10129744;29;20181;-55
2022/09/15 06:42:11;;;;;;;3.95;1.30;;;21.00;67.10;;;;;;10128404;29;20312;-55
2022/09/15 06:47:14;;;;;;;5.68;2.08;;;21.00;67.00;;;;;;10126742;29;20536;-55
2022/09/15 06:52:15;;;;;;;4.40;1.33;;;21.00;67.00;;;;;;10111037;29;20100;-55
2022/09/15 06:57:15;;;;;;;5.95;1.52;;;21.00;67.00;;;;;;10106030;29;20077;-55
2022/09/15 07:02:16;;;;;;;3.47;1.20;;;21.00;67.00;;;;;;10092533;29;20123;-55
2022/09/15 07:07:17;;;;;;;4.30;1.00;;;20.90;66.90;;;;;;10072059;29;20045;-55
2022/09/15 07:12:17;;;;;;;5.47;1.42;;;20.90;66.90;;;;;;10088472;29;20069;-55
2022/09/15 07:17:18;;;;;;;4.03;1.33;;;21.00;66.90;;;;;;10075831;29;20136;-55
2022/09/15 07:22:19;;;;;;;4.10;1.30;;;20.90;66.90;;;;;;10075650;29;20069;-54
2022/09/15 07:27:23;;;;;;;2.17;1.10;;;20.90;66.90;;;;;;10071365;29;20520;-55
2022/09/15 07:32:24;;;;;;;3.22;1.40;;;20.90;66.80;;;;;;10087923;29;20033;-55
2022/09/15 07:37:25;;;;;;;6.88;1.20;;;20.90;66.80;;;;;;10071016;29;20037;-55
2022/09/15 07:42:26;;;;;;;3.97;1.42;;;20.90;66.70;;;;;;10085472;29;20116;-56
2022/09/15 07:47:26;;;;;;;2.78;0.93;;;20.90;66.70;;;;;;10087438;29;20043;-56
2022/09/15 07:52:27;;;;;;;5.30;1.63;;;20.90;66.80;;;;;;10087141;29;20378;-56
2022/09/15 07:57:28;;;;;;;1.90;1.00;;;20.90;66.80;;;;;;10086442;29;20690;-55
2022/09/15 08:02:28;;;;;;;11.55;1.88;;;20.90;66.70;;;;;;10086616;29;20119;-55
2022/09/15 08:07:29;;;;;;;3.42;1.20;;;20.90;66.70;;;;;;10086427;29;20112;-55
2022/09/15 08:12:30;;;;;;;2.08;0.82;;;20.90;66.70;;;;;;10086252;29;20133;-56
2022/09/15 08:17:31;;;;;;;2.25;0.90;;;20.90;66.60;;;;;;10075486;29;20049;-56
2022/09/15 08:22:32;;;;;;;3.45;1.30;;;20.80;66.50;;;;;;10087915;29;20029;-55
2022/09/15 08:27:33;;;;;;;2.88;0.90;;;20.90;66.50;;;;;;10069361;29;20400;-55
2022/09/15 08:32:33;;;;;;;3.10;1.02;;;20.90;66.50;;;;;;10085430;29;20048;-56
2022/09/15 08:37:34;;;;;;;3.47;0.80;;;20.90;66.50;;;;;;10086062;29;20051;-56
2022/09/15 08:42:35;;;;;;;3.50;1.30;;;20.90;66.50;;;;;;10085267;29;20041;-55
2022/09/15 08:47:41;;;;;;;5.63;1.83;;;20.80;66.40;;;;;;10053658;29;20033;-54
2022/09/15 08:52:51;;;;;;;4.30;1.20;;;20.80;66.40;;;;;;10068451;29;20178;-56
2022/09/15 08:57:53;;;;;;;1.60;1.00;;;20.90;66.50;;;;;;10068513;29;20503;-55
2022/09/15 09:03:23;;;;;;;2.03;1.15;;;20.90;66.50;;;;;;10068539;29;20067;-56
2022/09/15 09:09:00;;;;;;;;;;;20.90;66.50;;;;;;10072696;29;20097;-55
2022/09/15 09:14:22;;;;;;;2.70;1.00;;;20.80;66.50;;;;;;10084759;29;19904;-55
2022/09/15 09:20:00;;;;;;;1.85;1.20;;;20.80;66.40;;;;;;10092296;29;20588;-56
2022/09/15 09:25:03;;;;;;;1.27;0.50;;;20.80;66.30;;;;;;10076522;29;20037;-56
2022/09/15 09:30:20;;;;;;;1.95;0.90;;;20.80;67.00;;;;;;10083408;29;20384;-56
2022/09/15 09:35:51;;;;;;;2.08;0.80;;;20.80;66.30;;;;;;10052195;29;20033;-57
2022/09/15 09:40:52;;;;;;;1.58;1.20;;;20.80;66.20;;;;;;10079298;29;20560;-56
2022/09/15 09:45:53;;;;;;;1.95;1.17;;;20.90;66.30;;;;;;10084147;29;20033;-55
2022/09/15 09:50:54;;;;;;;1.60;0.55;;;20.80;66.20;;;;;;10067070;29;20030;-55
2022/09/15 09:56:25;;;;;;;2.67;1.42;;;20.80;66.20;;;;;;10083896;29;20060;-55
2022/09/15 10:01:26;;;;;;;3.42;0.88;;;20.80;66.20;;;;;;10068603;29;20347;-56
2022/09/15 10:06:29;;;;;;;1.83;0.88;;;20.80;66.20;;;;;;10088335;29;20044;-56
2022/09/15 10:11:52;;;;;;;1.40;0.73;;;20.80;66.20;;;;;;10074355;29;20033;-56
2022/09/15 10:16:57;;;;;;;3.13;1.05;;;20.80;66.10;;;;;;10092540;29;20053;-55
2022/09/15 10:22:00;;;;;;;2.00;1.17;;;20.80;66.00;;;;;;10098810;29;20052;-56
2022/09/15 10:27:27;;;;;;;2.38;0.68;;;20.80;66.00;;;;;;10073596;29;20033;-55
2022/09/15 10:32:30;;;;;;;1.38;0.77;;;20.80;65.90;;;;;;10074883;29;20106;-55
2022/09/15 10:37:47;;;;;;;2.00;0.90;;;20.80;66.10;;;;;;10089972;29;20101;-55
2022/09/15 10:42:56;;;;;;;1.40;0.80;;;20.80;66.10;;;;;;10073336;29;20688;-56
2022/09/15 10:48:24;;;;;;;2.50;1.00;;;20.90;66.10;;;;;;10072940;29;20092;-55
2022/09/15 10:54:16;;;;;;;1.20;0.60;;;20.90;66.00;;;;;;10088234;29;20044;-54
2022/09/15 10:59:53;;;;;;;2.10;1.15;;;20.90;66.00;;;;;;10027038;29;20050;-54
2022/09/15 11:05:16;;;;;;;1.30;0.82;;;20.80;65.90;;;;;;10032034;29;20037;-56
2022/09/15 11:10:46;;;;;;;2.47;1.00;;;20.90;66.10;;;;;;10033238;29;20058;-55
2022/09/15 11:16:07;;;;;;;2.88;0.90;;;20.90;66.10;;;;;;10033056;29;20466;-56
2022/09/15 11:21:41;;;;;;;2.47;0.63;;;20.80;66.00;;;;;;10059297;29;20042;-54
2022/09/15 11:27:19;;;;;;;1.52;0.80;;;20.90;66.00;;;;;;10049693;29;20104;-55
2022/09/15 11:32:29;;;;;;;1.83;0.60;;;20.80;65.70;;;;;;10038174;29;20112;-55
2022/09/15 11:37:46;;;;;;;3.10;0.93;;;20.80;65.70;;;;;;10033376;29;20045;-55
2022/09/15 11:43:25;;;;;;;0.68;0.43;;;20.80;65.70;;;;;;10049696;29;20036;-55
2022/09/15 11:48:53;;;;;;;1.83;0.80;;;20.80;65.70;;;;;;10007260;29;20037;-55
2022/09/15 11:54:16;;;;;;;1.98;0.80;;;20.80;65.70;;;;;;10048963;29;20144;-56
2022/09/15 11:59:43;;;;;;;2.85;0.98;;;20.80;65.80;;;;;;10070960;29;20052;-55
2022/09/15 12:05:12;;;;;;;1.70;0.80;;;20.90;65.70;;;;;;10070583;29;20434;-54
2022/09/15 12:10:23;;;;;;;2.30;1.20;;;20.90;66.10;;;;;;10070714;29;20037;-55
2022/09/15 12:15:26;;;;;;;1.58;0.60;;;21.00;65.50;;;;;;10070897;29;20081;-54
2022/09/15 12:20:57;;;;;;;1.80;0.70;;;21.00;65.30;;;;;;10078546;29;20045;-56
2022/09/15 12:26:20;;;;;;;1.98;0.90;;;21.00;65.30;;;;;;10066946;29;20040;-54
2022/09/15 12:31:38;;;;;;;2.38;0.65;;;21.00;65.20;;;;;;10068900;29;20043;-55
2022/09/15 12:36:47;;;;;;;2.20;1.00;;;20.90;65.30;;;;;;10069174;29;20200;-56
2022/09/15 12:41:49;;;;;;;;;;;20.90;65.40;;;;;;10086772;29;20033;-54
2022/09/15 12:46:56;;;;;;;2.35;1.02;;;20.90;65.30;;;;;;10085285;29;19904;-55
2022/09/15 12:51:59;;;;;;;1.92;0.75;;;21.00;65.10;;;;;;10085240;29;20072;-55
2022/09/15 12:57:01;;;;;;;1.13;1.02;;;21.00;64.90;;;;;;10068265;29;20056;-55
2022/09/15 13:02:01;;;;;;;2.22;0.70;;;21.00;64.70;;;;;;10068541;29;20393;-54
2022/09/15 13:07:33;;;;;;;1.25;0.60;;;21.10;64.80;;;;;;10084971;29;20120;-54
2022/09/15 13:12:39;;;;;;;0.98;0.52;;;21.10;64.60;;;;;;10068788;29;20589;-55
2022/09/15 13:17:45;;;;;;;2.55;1.05;;;21.10;64.50;;;;;;10092108;29;20045;-54
2022/09/15 13:22:51;;;;;;;1.48;0.50;;;21.10;64.50;;;;;;10084283;29;20108;-54
2022/09/15 13:28:00;;;;;;;2.17;0.85;;;21.10;64.60;;;;;;10084313;29;20062;-55
2022/09/15 13:33:34;;;;;;;;;;;21.00;64.50;;;;;;10068169;29;20044;-54
2022/09/15 13:38:47;;;;;;;1.25;0.57;;;21.00;64.60;;;;;;10085219;29;19919;-55
2022/09/15 13:44:16;;;;;;;2.13;0.90;;;20.90;64.60;;;;;;10075634;29;20033;-55
2022/09/15 13:49:40;;;;;;;2.63;0.70;;;20.90;64.60;;;;;;10091972;29;20081;-55
2022/09/15 13:55:10;;;;;;;2.58;0.90;;;20.90;64.60;;;;;;10091516;29;20077;-55
2022/09/15 14:00:22;;;;;;;1.00;0.50;;;20.90;64.60;;;;;;10090928;29;20698;-55
2022/09/15 14:05:26;;;;;;;1.88;0.88;;;20.90;64.60;;;;;;10091599;29;20060;-55
2022/09/15 14:10:32;;;;;;;1.20;0.70;;;20.90;64.60;;;;;;10074219;29;20496;-55
2022/09/15 14:15:32;;;;;;;0.82;0.70;;;20.90;64.50;;;;;;10090313;29;20033;-55
2022/09/15 14:20:33;;;;;;;1.08;0.63;;;20.90;64.50;;;;;;10100779;29;20568;-55
2022/09/15 14:25:34;;;;;;;1.67;0.90;;;20.90;64.40;;;;;;10073902;29;20065;-54
2022/09/15 14:30:36;;;;;;;1.45;0.50;;;20.90;64.60;;;;;;10073295;29;20031;-55
2022/09/15 14:35:37;;;;;;;1.15;0.52;;;20.90;64.50;;;;;;10073630;29;20092;-54
2022/09/15 14:40:38;;;;;;;0.98;0.60;;;20.90;64.40;;;;;;10072586;29;20034;-55
2022/09/15 14:45:41;;;;;;;1.42;0.50;;;20.90;64.40;;;;;;10073262;29;20083;-54
2022/09/15 14:50:58;;;;;;;1.38;0.60;;;20.90;64.40;;;;;;10088109;29;20036;-54
2022/09/15 14:56:16;;;;;;;0.60;0.50;;;20.90;64.30;;;;;;10073068;29;20049;-55
2022/09/15 15:01:19;;;;;;;1.23;0.52;;;20.90;64.30;;;;;;10072068;29;20053;-55
2022/09/15 15:06:33;;;;;;;1.80;0.70;;;20.80;64.10;;;;;;10089347;29;20133;-55
2022/09/15 15:11:35;;;;;;;1.90;0.85;;;20.80;64.20;;;;;;10074516;29;20383;-56
2022/09/15 15:16:36;;;;;;;1.58;0.68;;;20.80;64.20;;;;;;10087894;29;20033;-55
2022/09/15 15:21:42;;;;;;;1.70;0.80;;;20.90;64.10;;;;;;10097766;29;20053;-55
2022/09/15 15:26:46;;;;;;;1.52;0.60;;;20.90;64.00;;;;;;10087609;29;20034;-55
2022/09/15 15:31:47;;;;;;;1.52;0.52;;;20.80;64.00;;;;;;10099984;29;20037;-56
2022/09/15 15:36:47;;;;;;;2.25;0.55;;;20.90;64.00;;;;;;10087615;29;20508;-54
2022/09/15 15:41:57;;;;;;;1.52;1.20;;;20.90;63.90;;;;;;10071223;29;20033;-55
2022/09/15 15:47:13;;;;;;;15.75;7.88;;;20.90;64.10;;;;;;10072054;29;20062;-55
2022/09/15 15:52:13;;;;;;;7.75;2.38;;;21.10;65.60;;;;;;10087907;29;20493;-56
2022/09/15 15:57:29;;;;;;;69.30;44.97;;;21.20;65.60;;;;;;10070556;29;20135;-56
2022/09/15 16:02:29;;;;;;;18.60;11.32;;;21.10;65.40;;;;;;10086253;29;20476;-51
2022/09/15 16:07:31;;;;;;;15.10;7.07;;;21.10;64.80;;;;;;10070147;29;20144;-56
2022/09/15 16:12:32;;;;;;;27.15;10.13;;;21.20;66.10;;;;;;10086331;29;20079;-57
2022/09/15 16:17:32;;;;;;;22.85;8.77;;;21.40;66.00;;;;;;10069581;29;20052;-55
2022/09/15 16:22:34;;;;;;;17.23;9.32;;;21.40;65.60;;;;;;10086329;29;20029;-56
2022/09/15 16:27:34;;;;;;;13.75;8.18;;;21.40;65.90;;;;;;10085892;29;20256;-57
2022/09/15 16:32:35;;;;;;;16.95;8.25;;;21.30;65.80;;;;;;10085811;29;20690;-57
2022/09/15 16:37:35;;;;;;;17.67;8.90;;;21.40;65.70;;;;;;10092485;29;20144;-58
2022/09/15 16:42:36;;;;;;;21.60;7.53;;;21.30;65.80;;;;;;10090614;29;20562;-57
2022/09/15 16:47:37;;;;;;;16.40;7.55;;;21.30;66.00;;;;;;10091708;29;20068;-58
2022/09/15 16:52:37;;;;;;;44.22;10.00;;;21.30;66.20;;;;;;10086399;29;20084;-58
2022/09/15 16:57:38;;;;;;;33.05;7.70;;;21.20;66.20;;;;;;10087111;29;20541;-56
2022/09/15 17:02:39;;;;;;;33.63;8.65;;;21.20;66.20;;;;;;10087504;29;20061;-56
2022/09/15 17:07:39;;;;;;;18.45;6.43;;;21.20;66.50;;;;;;10070626;29;20148;-57
2022/09/15 17:12:40;;;;;;;19.83;6.57;;;21.10;66.40;;;;;;10086527;29;20064;-57
2022/09/15 17:17:41;;;;;;;19.15;6.07;;;21.10;66.30;;;;;;10073916;29;20045;-57
2022/09/15 17:22:42;;;;;;;17.95;5.35;;;21.00;66.30;;;;;;10085258;29;20136;-56
2022/09/15 17:27:42;;;;;;;20.95;6.20;;;21.00;66.00;;;;;;10086009;29;20112;-57
2022/09/15 17:32:43;;;;;;;18.75;5.55;;;21.00;65.90;;;;;;10086249;29;20220;-57
2022/09/15 17:37:44;;;;;;;19.50;5.43;;;21.00;66.00;;;;;;10086006;29;20116;-56
2022/09/15 17:42:46;;;;;;;15.85;4.53;;;21.00;66.10;;;;;;10068478;29;20105;-57
2022/09/15 17:47:47;;;;;;;15.93;5.63;;;21.00;65.90;;;;;;10086443;29;20041;-56
2022/09/15 17:52:48;;;;;;;18.65;3.70;;;21.00;65.60;;;;;;10086097;29;20104;-59
2022/09/15 17:57:49;;;;;;;11.20;3.75;;;21.20;65.80;;;;;;10069237;29;20144;-58
2022/09/15 18:03:00;;;;;;;11.82;4.05;;;21.10;65.80;;;;;;10069504;29;20039;-58
2022/09/15 18:08:04;;;;;;;12.13;3.85;;;21.00;65.60;;;;;;10069635;29;20040;-58
2022/09/15 18:13:05;;;;;;;8.00;3.35;;;21.00;65.70;;;;;;10085949;29;20033;-58
2022/09/15 18:18:11;;;;;;;6.45;3.63;;;21.00;65.60;;;;;;10077844;29;20066;-58
2022/09/15 18:23:16;;;;;;;17.15;4.38;;;21.00;65.70;;;;;;10069642;29;20092;-58
2022/09/15 18:28:17;;;;;;;8.23;3.20;;;20.90;65.60;;;;;;10074937;29;20060;-58
2022/09/15 18:33:21;;;;;;;6.25;2.65;;;20.90;65.60;;;;;;10075729;29;20033;-58
2022/09/15 18:38:23;;;;;;;6.45;3.08;;;20.90;65.40;;;;;;10075024;29;20044;-58
2022/09/15 18:43:26;;;;;;;7.07;2.97;;;21.00;65.40;;;;;;10091609;29;20381;-58
2022/09/15 18:48:28;;;;;;;10.05;2.72;;;20.90;65.40;;;;;;10075513;29;20088;-58
2022/09/15 18:53:28;;;;;;;9.02;3.17;;;20.90;65.30;;;;;;10074363;29;20037;-58
2022/09/15 18:58:29;;;;;;;6.68;2.42;;;20.90;65.40;;;;;;10099461;29;20053;-59
2022/09/15 19:03:32;;;;;;;7.03;2.78;;;21.00;65.60;;;;;;10091148;29;20108;-57
2022/09/15 19:08:35;;;;;;;4.55;2.22;;;20.90;65.30;;;;;;10090615;29;20379;-57
2022/09/15 19:13:36;;;;;;;7.03;2.90;;;20.90;65.30;;;;;;10079422;29;20076;-57
2022/09/15 19:18:37;;;;;;;7.60;2.05;;;20.90;65.30;;;;;;10101964;29;20491;-58
2022/09/15 19:23:38;;;;;;;3.53;1.65;;;20.90;65.40;;;;;;10088361;29;20398;-57
2022/09/15 19:28:39;;;;;;;5.82;1.67;;;20.90;65.30;;;;;;10070219;29;20497;-56
2022/09/15 19:33:40;;;;;;;8.82;1.98;;;21.00;65.30;;;;;;10111860;29;20153;-57
2022/09/15 19:38:40;;;;;;;7.18;2.20;;;21.00;65.70;;;;;;10087780;29;20096;-57
2022/09/15 19:43:42;;;;;;;11.63;2.17;;;21.00;65.90;;;;;;10091360;29;20029;-56
2022/09/15 19:48:43;;;;;;;7.07;2.10;;;21.00;65.60;;;;;;10097703;29;20035;-56
2022/09/15 19:53:44;;;;;;;4.75;1.30;;;20.90;65.70;;;;;;10072812;29;20041;-56
2022/09/15 19:58:45;;;;;;;6.50;2.25;;;20.90;65.40;;;;;;10048121;29;20156;-57
2022/09/15 20:03:46;;;;;;;4.30;1.60;;;20.90;65.50;;;;;;10085982;29;20035;-56
2022/09/15 20:08:50;;;;;;;3.47;1.75;;;20.90;65.50;;;;;;10093377;29;20108;-57
2022/09/15 20:13:52;;;;;;;5.30;2.05;;;20.90;65.40;;;;;;10083948;29;20382;-57
2022/09/15 20:18:54;;;;;;;3.60;1.80;;;20.90;65.40;;;;;;10094793;29;20033;-56
2022/09/15 20:23:56;;;;;;;4.22;1.50;;;20.90;65.30;;;;;;10085815;29;20029;-57
2022/09/15 20:29:01;;;;;;;4.57;1.10;;;20.90;65.20;;;;;;10087202;29;20029;-57
2022/09/15 20:34:01;;;;;;;4.15;1.20;;;20.90;65.20;;;;;;10071017;29;20049;-57
2022/09/15 20:39:08;;;;;;;3.22;1.23;;;20.90;65.10;;;;;;10087958;29;20041;-56
2022/09/15 20:44:08;;;;;;;4.15;0.90;;;20.90;65.10;;;;;;10087880;29;20898;-57
2022/09/15 20:49:09;;;;;;;4.40;1.45;;;20.80;65.10;;;;;;10087043;29;20056;-56
2022/09/15 20:54:10;;;;;;;3.47;1.35;;;20.90;65.10;;;;;;10071143;29;20072;-56
2022/09/15 20:59:13;;;;;;;4.93;1.67;;;20.80;65.00;;;;;;10070693;29;20405;-55
2022/09/15 21:04:13;;;;;;;4.63;1.25;;;20.90;65.00;;;;;;10087423;29;20541;-57
2022/09/15 21:09:14;;;;;;;3.28;1.20;;;20.80;65.00;;;;;;10087348;29;20041;-57
2022/09/15 21:14:15;;;;;;;3.30;1.65;;;20.80;65.00;;;;;;10087141;29;20060;-57
2022/09/15 21:19:16;;;;;;;2.75;1.23;;;20.80;64.90;;;;;;10096746;29;20489;-56
2022/09/15 21:24:16;;;;;;;2.35;1.00;;;20.80;64.90;;;;;;10070515;29;20025;-57
2022/09/15 21:29:17;;;;;;;2.78;0.98;;;20.80;64.80;;;;;;10070046;29;20033;-57
2022/09/15 21:34:18;;;;;;;2.83;1.15;;;20.80;64.70;;;;;;10069943;29;20096;-57
2022/09/15 21:39:19;;;;;;;1.95;0.80;;;20.80;64.70;;;;;;10085168;29;20543;-57
2022/09/15 21:44:19;;;;;;;1.67;0.70;;;20.80;64.60;;;;;;10086797;29;20462;-57
2022/09/15 21:49:20;;;;;;;2.05;1.23;;;20.80;64.60;;;;;;10086394;29;20029;-57
2022/09/15 21:54:21;;;;;;;2.85;0.95;;;20.80;64.60;;;;;;10086333;29;20030;-56
2022/09/15 21:59:22;;;;;;;2.03;1.15;;;20.80;64.60;;;;;;10085367;29;20041;-56
2022/09/15 22:04:22;;;;;;;1.48;0.75;;;20.80;64.60;;;;;;10076893;29;20057;-56
2022/09/15 22:09:24;;;;;;;1.92;0.95;;;20.80;64.60;;;;;;10076804;29;20104;-56
2022/09/15 22:14:25;;;;;;;1.70;1.00;;;20.70;64.60;;;;;;10076403;29;20085;-56
2022/09/15 22:19:25;;;;;;;2.75;0.88;;;20.80;64.50;;;;;;10086016;29;20129;-57
2022/09/15 22:24:26;;;;;;;2.08;1.20;;;20.80;64.60;;;;;;10093187;29;20393;-56
2022/09/15 22:29:27;;;;;;;1.52;1.00;;;20.70;64.50;;;;;;10092347;29;20047;-56
2022/09/15 22:34:28;;;;;;;2.20;0.70;;;20.80;64.50;;;;;;10091249;29;20117;-55
2022/09/15 22:39:28;;;;;;;1.67;0.70;;;20.70;64.40;;;;;;10075684;29;20140;-57
2022/09/15 22:44:29;;;;;;;3.00;0.80;;;20.80;64.60;;;;;;10092110;29;20064;-56
2022/09/15 22:49:30;;;;;;;1.52;0.77;;;20.70;64.50;;;;;;10075440;29;20067;-57
2022/09/15 22:54:30;;;;;;;1.63;0.70;;;20.70;64.50;;;;;;10091845;29;20734;-57
2022/09/15 22:59:31;;;;;;;3.22;0.90;;;20.70;64.50;;;;;;10074834;29;20177;-57
2022/09/15 23:04:32;;;;;;;1.23;0.90;;;20.70;64.40;;;;;;10091696;29;20104;-56
2022/09/15 23:09:33;;;;;;;2.80;0.80;;;20.70;64.40;;;;;;10091388;29;20037;-56
2022/09/15 23:14:33;;;;;;;5.05;0.90;;;20.70;64.50;;;;;;10088808;29;20029;-56
2022/09/15 23:19:34;;;;;;;1.55;0.60;;;20.70;64.50;;;;;;10082861;29;20049;-57
2022/09/15 23:24:35;;;;;;;1.25;0.65;;;20.70;64.50;;;;;;10090736;29;20061;-57
2022/09/15 23:29:36;;;;;;;1.30;0.60;;;20.70;64.50;;;;;;10074121;29;20067;-57
2022/09/15 23:34:36;;;;;;;2.08;0.80;;;20.70;64.40;;;;;;10090624;29;20139;-57
2022/09/15 23:39:37;;;;;;;1.02;0.50;;;20.70;64.50;;;;;;10090036;29;20135;-57
2022/09/15 23:44:38;;;;;;;2.03;0.75;;;20.70;64.30;;;;;;10090401;29;20491;-56
2022/09/15 23:49:38;;;;;;;2.00;0.82;;;20.70;64.30;;;;;;10089680;29;20124;-57
2022/09/15 23:54:39;;;;;;;2.13;1.08;;;20.70;64.40;;;;;;10072574;29;20052;-56
2022/09/15 23:59:39;;;;;;;1.33;0.47;;;20.70;64.40;;;;;;10089267;29;20193;-57
